Time;durP1;ratioP1;P1;durP2;ratioP2;P2;SDS_P1;SDS_P2;PMS_P1;PMS_P2;Temp;Humidity;BMP_temperature;BMP_pressure;BME280_temperature;BME280_humidity;BME280_pressure;Samples;Min_cycle;Max_cycle;Signal;HPM_P1;HPM_P2
2022/10/01 00:02:37;;;;;;;;;;;;;;;20.88;44.20;95434.38;10518144;28;3081;-44
2022/10/01 00:07:38;;;;;;;;;;;;;;;20.87;44.26;95440.72;10527153;28;3313;-47
2022/10/01 00:12:38;;;;;;;;;;;;;;;20.85;44.06;95435.75;10530039;28;3291;-44
2022/10/01 00:17:38;;;;;;;;;;;;;;;20.84;44.17;95436.81;10534295;28;3305;-46
2022/10/01 00:22:39;;;;;;;;;;;;;;;20.85;44.04;95434.97;10526610;28;3331;-43
2022/10/01 00:27:39;;;;;;;;;;;;;;;20.84;44.16;95443.91;10520146;28;3316;-43
2022/10/01 00:32:40;;;;;;;;;;;;;;;20.80;44.47;95443.69;10520438;28;3027;-44
2022/10/01 00:37:41;;;;;;;;;;;;;;;20.80;44.41;95448.97;10515579;28;3332;-43
2022/10/01 00:42:42;;;;;;;;;;;;;;;20.82;44.11;95444.22;10512455;28;3370;-43
2022/10/01 00:47:53;;;;;;;;;;;;;;;20.78;44.33;95437.13;10527335;28;3297;-43
2022/10/01 00:52:55;;;;;;;;;;;;;;;20.78;44.02;95435.31;10538895;28;3338;-44
2022/10/01 00:57:55;;;;;;;;;;;;;;;20.80;44.11;95438.44;10513761;28;3010;-44
2022/10/01 01:02:55;;;;;;;;;;;;;;;20.78;43.80;95435.31;10504533;28;3285;-46
2022/10/01 01:08:00;;;;;;;;;;;;;;;20.75;44.18;95420.03;10522606;28;3102;-45
2022/10/01 01:13:09;;;;;;;;;;;;;;;20.74;44.06;95412.44;10517027;28;2897;-45
2022/10/01 01:18:24;;;;;;;;;;;;;;;20.74;43.75;95409.81;10526732;28;3003;-43
2022/10/01 01:23:30;;;;;;;;;;;;;;;20.72;44.13;95406.66;10508650;28;3329;-46
2022/10/01 01:28:43;;;;;;;;;;;;;;;20.71;44.15;95400.59;10538407;28;3320;-45
2022/10/01 01:33:44;;;;;;;;;;;;;;;20.71;44.09;95395.34;10522855;28;3330;-43
2022/10/01 01:38:49;;;;;;;;;;;;;;;20.70;44.13;95417.50;10520742;28;3284;-46
2022/10/01 01:43:50;;;;;;;;;;;;;;;20.71;43.96;95415.66;10532386;28;3003;-46
2022/10/01 01:48:52;;;;;;;;;;;;;;;20.70;44.15;95412.22;10532639;28;3320;-44
2022/10/01 01:53:52;;;;;;;;;;;;;;;20.67;44.10;95412.78;10496958;28;3246;-43
2022/10/01 01:58:52;;;;;;;;;;;;;;;20.66;44.11;95413.84;10531423;28;3443;-45
2022/10/01 02:03:53;;;;;;;;;;;;;;;20.66;44.04;95405.94;10508857;28;3272;-45
2022/10/01 02:09:03;;;;;;;;;;;;;;;20.66;43.82;95405.94;10518869;28;2998;-43
2022/10/01 02:14:09;;;;;;;;;;;;;;;20.64;44.13;95402.81;10513429;28;3304;-43
2022/10/01 02:19:33;;;;;;;;;;;;;;;20.67;44.05;95412.00;10533110;28;3387;-45
2022/10/01 02:24:47;;;;;;;;;;;;;;;20.64;43.86;95405.44;10506602;28;3999;-45
2022/10/01 02:29:47;;;;;;;;;;;;;;;20.64;43.77;95407.28;10520405;28;3431;-47
2022/10/01 02:34:48;;;;;;;;;;;;;;;20.61;43.80;95400.72;10511354;28;3095;-44
2022/10/01 02:39:48;;;;;;;;;;;;;;;20.62;44.00;95404.16;10528345;28;3359;-45
2022/10/01 02:44:49;;;;;;;;;;;;;;;20.59;43.75;95399.44;10530637;28;3386;-46
2022/10/01 02:49:54;;;;;;;;;;;;;;;20.62;43.77;95388.34;10518716;28;3229;-43
2022/10/01 02:54:54;;;;;;;;;;;;;;;20.61;43.92;95384.94;10519180;28;3021;-44
2022/10/01 02:59:58;;;;;;;;;;;;;;;20.58;43.71;95372.34;10515458;28;3135;-46
2022/10/01 03:04:58;;;;;;;;;;;;;;;20.57;43.75;95383.94;10519648;28;3384;-43
2022/10/01 03:09:59;;;;;;;;;;;;;;;20.56;43.65;95374.47;10523875;28;2955;-47
2022/10/01 03:14:59;;;;;;;;;;;;;;;20.57;43.60;95383.13;10533733;28;3269;-48
2022/10/01 03:19:59;;;;;;;;;;;;;;;20.56;43.87;95378.94;10529269;28;3957;-46
2022/10/01 03:24:59;;;;;;;;;;;;;;;20.55;43.63;95382.63;10524929;28;3066;-44
2022/10/01 03:30:00;;;;;;;;;;;;;;;20.55;43.83;95388.69;10539489;28;3248;-48
2022/10/01 03:35:00;;;;;;;;;;;;;;;20.52;43.65;95380.59;10514097;28;3124;-45
2022/10/01 03:40:00;;;;;;;;;;;;;;;20.56;43.69;95373.69;10518115;28;3538;-45
2022/10/01 03:45:01;;;;;;;;;;;;;;;20.67;43.43;95356.69;10526195;28;3027;-44
2022/10/01 03:50:01;;;;;;;;;;;;;;;20.71;43.36;95357.69;10510934;28;3332;-49
2022/10/01 03:55:01;;;;;;;;;;;;;;;20.78;43.42;95358.91;10520348;28;3023;-44
2022/10/01 04:00:02;;;;;;;;;;;;;;;20.83;43.22;95352.78;10522243;28;3360;-45
2022/10/01 04:05:02;;;;;;;;;;;;;;;20.84;42.79;95355.13;10524434;28;3106;-44
2022/10/01 04:10:13;;;;;;;;;;;;;;;20.84;42.25;95363.03;10522782;28;3424;-45
2022/10/01 04:15:15;;;;;;;;;;;;;;;20.88;42.32;95371.94;10525030;28;3375;-44
2022/10/01 04:20:16;;;;;;;;;;;;;;;20.89;42.43;95357.72;10523897;28;3412;-43
2022/10/01 04:25:24;;;;;;;;;;;;;;;20.91;42.21;95371.38;10540479;28;3086;-49
2022/10/01 04:30:25;;;;;;;;;;;;;;;20.93;42.10;95365.81;10514703;28;3293;-46
2022/10/01 04:35:26;;;;;;;;;;;;;;;20.94;41.97;95368.16;10538008;28;3371;-48
2022/10/01 04:40:26;;;;;;;;;;;;;;;20.98;41.77;95378.91;10533935;28;3010;-43
2022/10/01 04:45:26;;;;;;;;;;;;;;;21.01;41.94;95370.44;10539525;28;3962;-44
2022/10/01 04:50:26;;;;;;;;;;;;;;;21.02;41.75;95375.47;10527665;28;3355;-45
2022/10/01 04:55:27;;;;;;;;;;;;;;;21.04;41.70;95375.97;10527157;28;3209;-43
2022/10/01 05:00:27;;;;;;;;;;;;;;;21.06;41.69;95379.09;10540014;28;3650;-43
2022/10/01 05:05:28;;;;;;;;;;;;;;;21.08;41.40;95371.69;10541395;28;3104;-48
2022/10/01 05:10:28;;;;;;;;;;;;;;;21.11;41.56;95372.19;10540667;28;2995;-45
2022/10/01 05:15:29;;;;;;;;;;;;;;;21.12;41.29;95377.19;10526444;28;3366;-44
2022/10/01 05:20:29;;;;;;;;;;;;;;;21.13;41.19;95368.19;10533443;28;3488;-43
2022/10/01 05:25:29;;;;;;;;;;;;;;;21.16;42.61;95370.28;10529359;28;3094;-45
2022/10/01 05:30:30;;;;;;;;;;;;;;;21.20;43.27;95373.91;10533710;28;3337;-44
2022/10/01 05:35:30;;;;;;;;;;;;;;;21.19;43.22;95379.44;10518968;28;3004;-44
2022/10/01 05:40:30;;;;;;;;;;;;;;;21.20;43.29;95383.66;10532757;28;3007;-44
2022/10/01 05:45:31;;;;;;;;;;;;;;;21.19;43.27;95376.81;10545012;27;3099;-43
2022/10/01 05:50:32;;;;;;;;;;;;;;;21.16;43.11;95388.72;10543118;28;3269;-44
2022/10/01 05:55:33;;;;;;;;;;;;;;;21.19;43.22;95392.63;10536418;28;3431;-43
2022/10/01 06:00:33;;;;;;;;;;;;;;;21.19;42.98;95393.41;10533186;28;2996;-46
2022/10/01 06:05:37;;;;;;;;;;;;;;;21.19;42.74;95392.63;10524859;28;2883;-45
2022/10/01 06:10:37;;;;;;;;;;;;;;;21.19;43.00;95396.03;10549171;28;3023;-43
2022/10/01 06:15:37;;;;;;;;;;;;;;;21.19;43.21;95388.13;10543062;28;3154;-43
2022/10/01 06:20:38;;;;;;;;;;;;;;;21.22;42.57;95407.88;10530401;28;3446;-44
2022/10/01 06:25:39;;;;;;;;;;;;;;;21.22;43.05;95402.59;10531332;28;3072;-47
2022/10/01 06:30:39;;;;;;;;;;;;;;;21.23;42.97;95404.16;10536949;28;3026;-44
2022/10/01 06:35:40;;;;;;;;;;;;;;;21.20;42.70;95400.25;10513126;28;2684;-43
2022/10/01 06:40:42;;;;;;;;;;;;;;;21.21;42.57;95406.31;10540187;27;3094;-44
2022/10/01 06:45:42;;;;;;;;;;;;;;;21.22;42.77;95392.06;10515843;28;3311;-45
2022/10/01 06:50:43;;;;;;;;;;;;;;;21.20;42.70;95405.53;10513136;28;3040;-45
2022/10/01 06:55:43;;;;;;;;;;;;;;;21.20;42.67;95415.28;10518015;28;2740;-43
2022/10/01 07:00:43;;;;;;;;;;;;;;;21.21;42.80;95408.94;10511539;28;3182;-43
2022/10/01 07:05:44;;;;;;;;;;;;;;;21.19;42.84;95403.16;10509538;28;2947;-44
2022/10/01 07:10:44;;;;;;;;;;;;;;;21.20;42.77;95399.47;10504923;28;2862;-46
2022/10/01 07:15:44;;;;;;;;;;;;;;;21.17;42.62;95398.19;10499939;28;2725;-44
2022/10/01 07:20:45;;;;;;;;;;;;;;;21.16;42.65;95385.31;10511173;28;3297;-44
2022/10/01 07:25:45;;;;;;;;;;;;;;;21.15;42.51;95387.16;10496166;28;3019;-46
2022/10/01 07:30:55;;;;;;;;;;;;;;;21.14;42.32;95371.63;10486280;28;3342;-43
2022/10/01 07:35:58;;;;;;;;;;;;;;;21.14;42.46;95364.50;10506330;28;3038;-44
2022/10/01 07:41:01;;;;;;;;;;;;;;;21.13;42.13;95356.88;10516658;28;2991;-43
2022/10/01 07:46:03;;;;;;;;;;;;;;;21.12;42.35;95369.28;10493119;28;2681;-44
2022/10/01 07:51:04;;;;;;;;;;;;;;;21.11;42.76;95370.34;10507498;28;3064;-48
2022/10/01 07:56:04;;;;;;;;;;;;;;;21.13;42.69;95362.13;10504624;28;2992;-47
2022/10/01 08:01:09;;;;;;;;;;;;;;;21.12;42.38;95363.22;10516389;28;3038;-43
2022/10/01 08:06:10;;;;;;;;;;;;;;;21.10;42.49;95360.09;10537772;28;3083;-43
2022/10/01 08:11:13;;;;;;;;;;;;;;;21.09;42.60;95359.28;10520171;28;3206;-47
2022/10/01 08:16:13;;;;;;;;;;;;;;;21.07;42.44;95348.25;10519814;28;3142;-45
2022/10/01 08:21:14;;;;;;;;;;;;;;;21.07;42.86;95337.72;10514853;28;3058;-46
2022/10/01 08:26:14;;;;;;;;;;;;;;;21.07;42.51;95340.34;10527946;28;2693;-44
2022/10/01 08:31:15;;;;;;;;;;;;;;;21.05;42.44;95345.91;10529933;28;3045;-47
2022/10/01 08:36:15;;;;;;;;;;;;;;;21.05;42.56;95343.28;10515982;28;3311;-45
2022/10/01 08:41:26;;;;;;;;;;;;;;;21.06;42.41;95339.56;10513536;28;3079;-46
2022/10/01 08:46:27;;;;;;;;;;;;;;;21.21;42.33;95325.38;10527739;28;3150;-45
2022/10/01 08:51:45;;;;;;;;;;;;;;;21.18;42.14;95322.53;10561464;27;3007;-45
2022/10/01 08:56:46;;;;;;;;;;;;;;;21.21;42.14;95332.50;10549275;27;3062;-45
2022/10/01 09:01:48;;;;;;;;;;;;;;;21.10;42.43;95331.88;10534591;28;2668;-45
2022/10/01 09:06:48;;;;;;;;;;;;;;;21.04;42.16;95328.53;10524289;28;2991;-45
2022/10/01 09:11:51;;;;;;;;;;;;;;;21.03;42.50;95326.97;10538971;28;3051;-45
2022/10/01 09:16:59;;;;;;;;;;;;;;;21.03;42.59;95308.53;10542783;28;3368;-45
2022/10/01 09:22:02;;;;;;;;;;;;;;;21.06;42.58;95312.44;10525559;28;2991;-44
2022/10/01 09:27:07;;;;;;;;;;;;;;;21.05;42.60;95313.50;10547556;27;2983;-49
2022/10/01 09:32:09;;;;;;;;;;;;;;;21.05;41.78;95316.94;10524768;28;2959;-45
2022/10/01 09:37:24;;;;;;;;;;;;;;;21.06;42.31;95315.84;10537570;27;2996;-48
2022/10/01 09:42:25;;;;;;;;;;;;;;;21.06;42.49;95323.75;10534033;27;2935;-47
2022/10/01 09:47:30;;;;;;;;;;;;;;;21.06;42.64;95336.16;10518235;28;2971;-44
2022/10/01 09:52:35;;;;;;;;;;;;;;;21.06;42.40;95329.03;10492327;28;3199;-44
2022/10/01 09:57:55;;;;;;;;;;;;;;;21.06;42.44;95320.34;10527688;28;2951;-47
2022/10/01 10:02:56;;;;;;;;;;;;;;;21.04;42.83;95317.97;10530143;28;3092;-48
2022/10/01 10:08:03;;;;;;;;;;;;;;;21.05;42.32;95313.50;10543178;27;3090;-45
2022/10/01 10:13:09;;;;;;;;;;;;;;;21.06;42.27;95315.84;10527995;28;2717;-45
2022/10/01 10:18:11;;;;;;;;;;;;;;;21.08;42.26;95330.59;10506506;28;3042;-44
2022/10/01 10:23:12;;;;;;;;;;;;;;;21.10;41.88;95331.09;10541150;27;2986;-47
2022/10/01 10:28:19;;;;;;;;;;;;;;;21.10;42.00;95336.38;10539956;28;2833;-45
2022/10/01 10:33:20;;;;;;;;;;;;;;;21.14;41.81;95327.59;10538808;28;2950;-46
2022/10/01 10:38:21;;;;;;;;;;;;;;;21.15;41.76;95331.00;10543070;28;2670;-45
2022/10/01 10:43:21;;;;;;;;;;;;;;;21.16;41.80;95336.00;10556001;27;3011;-44
2022/10/01 10:48:27;;;;;;;;;;;;;;;21.16;41.75;95336.00;10522345;28;3043;-47
2022/10/01 10:53:30;;;;;;;;;;;;;;;21.17;42.32;95339.41;10529890;28;2951;-45
2022/10/01 10:58:32;;;;;;;;;;;;;;;21.24;43.41;95339.84;10549392;28;2962;-44
2022/10/01 11:03:45;;;;;;;;;;;;;;;21.25;43.17;95341.41;10511188;28;2738;-45
2022/10/01 11:08:55;;;;;;;;;;;;;;;21.37;45.19;95342.50;10537886;28;2999;-46
2022/10/01 11:14:09;;;;;;;;;;;;;;;21.40;44.86;95346.44;10524987;28;3014;-44
2022/10/01 11:19:29;;;;;;;;;;;;;;;21.37;45.07;95353.06;10506592;28;3034;-47
2022/10/01 11:24:32;;;;;;;;;;;;;;;21.34;45.16;95345.75;10518378;28;2987;-47
2022/10/01 11:29:37;;;;;;;;;;;;;;;21.36;45.91;95356.00;10528210;28;2760;-43
2022/10/01 11:34:48;;;;;;;;;;;;;;;21.38;46.67;95351.22;10546493;27;2932;-43
2022/10/01 11:39:49;;;;;;;;;;;;;;;21.38;46.92;95354.63;10536643;28;3093;-45
2022/10/01 11:45:01;;;;;;;;;;;;;;;21.41;46.99;95354.06;10519616;28;3383;-43
2022/10/01 11:50:02;;;;;;;;;;;;;;;21.34;46.87;95358.94;10519923;28;3176;-44
2022/10/01 12:01:00;;;;;;;;;;;;;;;21.29;47.41;95379.31;10518044;28;3121;-44
2022/10/01 12:06:00;;;;;;;;;;;;;;;21.29;47.29;95376.69;10492633;28;3096;-44
2022/10/01 12:11:07;;;;;;;;;;;;;;;21.27;47.30;95381.47;10523071;28;3158;-46
2022/10/01 12:16:13;;;;;;;;;;;;;;;21.24;47.25;95363.56;10509846;28;3023;-44
2022/10/01 12:21:18;;;;;;;;;;;;;;;21.24;47.31;95367.00;10520199;28;2947;-46
2022/10/01 12:26:18;;;;;;;;;;;;;;;21.24;47.36;95371.47;10537960;28;3055;-45
2022/10/01 12:31:24;;;;;;;;;;;;;;;21.25;47.34;95365.13;10530686;28;3042;-43
2022/10/01 12:36:25;;;;;;;;;;;;;;;21.25;47.47;95367.75;10522419;28;3162;-47
2022/10/01 12:41:33;;;;;;;;;;;;;;;21.29;47.83;95380.09;10517329;28;3050;-44
2022/10/01 12:46:33;;;;;;;;;;;;;;;21.17;47.22;95368.41;10514982;28;2998;-43
2022/10/01 12:51:39;;;;;;;;;;;;;;;21.16;47.16;95361.59;10515550;28;2720;-46
2022/10/01 12:56:41;;;;;;;;;;;;;;;21.09;47.39;95361.94;10513602;28;3077;-45
2022/10/01 13:01:42;;;;;;;;;;;;;;;21.12;47.26;95352.69;10521450;28;2868;-45
2022/10/01 13:06:47;;;;;;;;;;;;;;;21.08;47.16;95342.69;10512291;28;2948;-47
2022/10/01 13:11:53;;;;;;;;;;;;;;;21.07;47.06;95348.25;10525823;28;3030;-46
2022/10/01 13:17:09;;;;;;;;;;;;;;;21.02;47.29;95345.69;10506783;28;3034;-46
2022/10/01 13:22:18;;;;;;;;;;;;;;;21.02;46.86;95337.78;10517197;28;2955;-46
2022/10/01 13:27:24;;;;;;;;;;;;;;;21.08;46.97;95335.88;10523655;28;3012;-45
2022/10/01 13:32:32;;;;;;;;;;;;;;;21.03;47.06;95342.00;10505030;28;2724;-48
2022/10/01 13:37:36;;;;;;;;;;;;;;;21.06;46.23;95330.91;10514036;28;3097;-45
2022/10/01 13:42:40;;;;;;;;;;;;;;;21.06;46.10;95338.81;10521220;28;3090;-44
2022/10/01 13:47:44;;;;;;;;;;;;;;;21.03;45.64;95334.88;10486189;28;3042;-45
2022/10/01 13:52:44;;;;;;;;;;;;;;;20.98;45.25;95340.19;10522198;28;3073;-45
2022/10/01 13:57:45;;;;;;;;;;;;;;;20.96;45.06;95341.53;10511906;28;3046;-47
2022/10/01 14:02:58;;;;;;;;;;;;;;;20.95;43.98;95356.56;10519024;28;2728;-44
2022/10/01 14:08:09;;;;;;;;;;;;;;;20.93;44.11;95347.38;10530077;28;2764;-45
2022/10/01 14:18:29;;;;;;;;;;;;;;;20.97;44.98;95349.16;10522478;28;2767;-45
2022/10/01 14:23:50;;;;;;;;;;;;;;;20.96;44.29;95352.06;10529478;28;3276;-44
2022/10/01 14:28:53;;;;;;;;;;;;;;;20.94;44.14;95355.00;10518627;28;3309;-44
2022/10/01 14:34:09;;;;;;;;;;;;;;;20.92;44.04;95354.50;10515477;28;2960;-46
2022/10/01 14:39:15;;;;;;;;;;;;;;;20.93;44.37;95353.44;10517579;28;2705;-46
2022/10/01 14:44:15;;;;;;;;;;;;;;;20.93;44.21;95355.28;10515037;28;2752;-46
2022/10/01 14:49:26;;;;;;;;;;;;;;;20.94;44.14;95351.56;10520213;28;3022;-45
2022/10/01 14:54:27;;;;;;;;;;;;;;;20.95;44.52;95361.84;10532245;28;2772;-46
2022/10/01 14:59:34;;;;;;;;;;;;;;;20.95;44.35;95367.13;10532106;28;3305;-47
2022/10/01 15:04:34;;;;;;;;;;;;;;;20.96;44.56;95368.66;10529800;28;2807;-44
2022/10/01 15:09:35;;;;;;;;;;;;;;;20.98;44.48;95374.44;10532532;28;2962;-45
2022/10/01 15:14:36;;;;;;;;;;;;;;;20.98;44.40;95371.81;10532671;28;2744;-44
2022/10/01 15:19:40;;;;;;;;;;;;;;;20.98;44.65;95366.53;10542216;28;3103;-47
2022/10/01 15:24:41;;;;;;;;;;;;;;;20.99;43.77;95378.66;10546855;28;3309;-44
2022/10/01 15:29:41;;;;;;;;;;;;;;;21.03;43.55;95384.16;10550381;27;2756;-44
2022/10/01 15:34:42;;;;;;;;;;;;;;;21.00;43.40;95369.66;10520122;28;3038;-47
2022/10/01 15:39:43;;;;;;;;;;;;;;;21.01;43.23;95373.88;10561499;27;3246;-44
2022/10/01 15:44:47;;;;;;;;;;;;;;;21.02;43.45;95377.31;10567953;27;3118;-45
2022/10/01 15:50:00;;;;;;;;;;;;;;;21.00;43.20;95372.28;10564013;27;2856;-47
2022/10/01 15:55:00;;;;;;;;;;;;;;;21.03;43.37;95373.63;10544146;28;3011;-44
2022/10/01 16:00:01;;;;;;;;;;;;;;;21.05;43.35;95377.53;10548751;28;2988;-45
2022/10/01 16:05:02;;;;;;;;;;;;;;;21.08;43.49;95380.69;10537273;28;3167;-46
2022/10/01 16:10:35;;;;;;;;;;;;;;;21.11;43.21;95380.09;10513043;28;3006;-50
2022/10/01 16:15:35;;;;;;;;;;;;;;;21.10;43.13;95392.50;10520968;28;3051;-46
2022/10/01 16:20:36;;;;;;;;;;;;;;;21.05;42.93;95385.44;10542715;28;2915;-45
2022/10/01 16:25:42;;;;;;;;;;;;;;;20.98;43.08;95403.41;10539708;28;3043;-46
2022/10/01 16:30:42;;;;;;;;;;;;;;;21.01;43.56;95407.34;10552272;28;3077;-45
2022/10/01 16:35:44;;;;;;;;;;;;;;;20.96;43.15;95400.28;10537749;28;3007;-47
2022/10/01 16:40:46;;;;;;;;;;;;;;;20.94;42.96;95412.97;10559096;27;3070;-46
2022/10/01 16:45:47;;;;;;;;;;;;;;;20.94;43.09;95418.22;10539737;28;2995;-46
2022/10/01 16:50:47;;;;;;;;;;;;;;;20.94;43.00;95418.22;10538456;28;2648;-44
2022/10/01 16:55:48;;;;;;;;;;;;;;;20.93;42.95;95423.78;10525853;28;2927;-47
2022/10/01 17:00:49;;;;;;;;;;;;;;;20.92;43.02;95441.44;10524450;28;3055;-45
2022/10/01 17:05:49;;;;;;;;;;;;;;;20.93;43.15;95445.66;10521231;28;2880;-44
2022/10/01 17:10:52;;;;;;;;;;;;;;;20.94;43.13;95460.38;10520143;28;3189;-48
2022/10/01 17:15:52;;;;;;;;;;;;;;;20.93;42.88;95453.56;10524181;28;2744;-47
2022/10/01 17:20:54;;;;;;;;;;;;;;;20.95;43.13;95464.59;10516694;28;3046;-46
2022/10/01 17:25:55;;;;;;;;;;;;;;;20.94;42.83;95468.28;10530764;28;2729;-47
2022/10/01 17:30:55;;;;;;;;;;;;;;;20.95;42.78;95464.59;10512969;28;2724;-44
2022/10/01 17:35:55;;;;;;;;;;;;;;;20.95;42.54;95459.34;10516375;28;2766;-44
2022/10/01 17:40:58;;;;;;;;;;;;;;;20.95;42.76;95467.25;10537711;28;3022;-45
2022/10/01 17:45:59;;;;;;;;;;;;;;;20.95;42.78;95469.88;10535825;28;2673;-48
2022/10/01 17:51:04;;;;;;;;;;;;;;;20.95;42.77;95493.59;10535993;28;2873;-46
2022/10/01 17:56:08;;;;;;;;;;;;;;;20.94;42.78;95518.34;10535918;28;2944;-45
2022/10/01 18:01:09;;;;;;;;;;;;;;;20.96;42.64;95520.69;10549120;27;3043;-45
2022/10/01 18:06:14;;;;;;;;;;;;;;;20.99;42.81;95522.78;10515317;28;2721;-45
2022/10/01 18:11:14;;;;;;;;;;;;;;;21.02;42.93;95525.66;10515471;28;3018;-45
2022/10/01 18:16:14;;;;;;;;;;;;;;;21.00;43.18;95533.03;10529023;28;2733;-48
2022/10/01 18:21:14;;;;;;;;;;;;;;;21.04;43.13;95543.84;10518427;28;3083;-45
2022/10/01 18:26:15;;;;;;;;;;;;;;;21.11;43.41;95546.13;10526097;28;2693;-48
2022/10/01 18:31:16;;;;;;;;;;;;;;;20.95;42.97;95546.28;10500219;28;3113;-46
2022/10/01 18:36:19;;;;;;;;;;;;;;;20.93;43.21;95545.78;10514791;28;3002;-45
2022/10/01 18:41:25;;;;;;;;;;;;;;;20.92;43.02;95541.56;10522399;28;3065;-49
2022/10/01 18:46:44;;;;;;;;;;;;;;;20.87;42.97;95549.53;10527449;28;3395;-47
2022/10/01 18:52:00;;;;;;;;;;;;;;;20.86;43.08;95563.75;10522555;28;2712;-47
2022/10/01 18:57:19;;;;;;;;;;;;;;;20.86;42.99;95574.31;10523163;28;2720;-47
2022/10/01 19:02:28;;;;;;;;;;;;;;;20.86;43.07;95579.56;10508778;28;3158;-46
2022/10/01 19:07:39;;;;;;;;;;;;;;;20.86;42.92;95582.22;10519747;28;3375;-48
2022/10/01 19:12:56;;;;;;;;;;;;;;;20.85;42.83;95587.75;10533429;28;3023;-46
2022/10/01 19:18:20;;;;;;;;;;;;;;;20.86;42.99;95581.41;10531260;28;2731;-45
2022/10/01 19:23:34;;;;;;;;;;;;;;;20.85;43.13;95593.81;10493173;28;3023;-46
2022/10/01 19:28:34;;;;;;;;;;;;;;;20.87;42.83;95599.59;10520895;28;2768;-45
2022/10/01 19:33:36;;;;;;;;;;;;;;;20.86;42.76;95598.00;10517110;28;2905;-46
2022/10/01 19:38:36;;;;;;;;;;;;;;;20.87;42.92;95606.72;10524068;28;2803;-44
2022/10/01 19:43:43;;;;;;;;;;;;;;;20.88;43.18;95627.50;10512037;28;3407;-47
2022/10/01 19:48:44;;;;;;;;;;;;;;;20.90;43.27;95633.28;10506716;28;3011;-45
2022/10/01 19:53:45;;;;;;;;;;;;;;;20.90;43.32;95638.56;10512967;28;2927;-45
2022/10/01 19:58:53;;;;;;;;;;;;;;;20.91;43.30;95653.31;10528964;28;3024;-45
2022/10/01 20:03:58;;;;;;;;;;;;;;;20.91;43.59;95650.66;10528520;28;3038;-45
2022/10/01 20:09:10;;;;;;;;;;;;;;;20.93;43.71;95659.09;10542977;28;2944;-44
2022/10/01 20:19:51;;;;;;;;;;;;;;;20.92;43.44;95670.69;10524035;28;3184;-44
2022/10/01 20:24:51;;;;;;;;;;;;;;;20.92;43.79;95670.69;10524462;28;3018;-46
2022/10/01 20:30:13;;;;;;;;;;;;;;;20.93;43.61;95685.44;10525196;28;2753;-46
2022/10/01 20:35:19;;;;;;;;;;;;;;;20.95;43.77;95695.69;10525416;28;2765;-45
2022/10/01 20:40:27;;;;;;;;;;;;;;;20.94;43.50;95705.44;10516015;28;2999;-45
2022/10/01 20:45:28;;;;;;;;;;;;;;;20.93;43.33;95708.34;10548325;27;3127;-45
2022/10/01 20:50:38;;;;;;;;;;;;;;;20.93;43.28;95709.16;10531471;28;2781;-44
2022/10/01 20:55:40;;;;;;;;;;;;;;;20.92;43.16;95712.03;10519558;28;2814;-46
2022/10/01 21:00:41;;;;;;;;;;;;;;;20.91;43.00;95728.94;10518363;28;3073;-46
2022/10/01 21:05:42;;;;;;;;;;;;;;;20.91;43.29;95727.09;10531639;28;2959;-44
2022/10/01 21:10:45;;;;;;;;;;;;;;;20.91;42.95;95739.47;10536672;28;3079;-45
2022/10/01 21:15:48;;;;;;;;;;;;;;;20.92;42.77;95741.81;10516145;28;3002;-44
2022/10/01 21:20:51;;;;;;;;;;;;;;;20.92;43.15;95746.28;10516374;28;3029;-45
2022/10/01 21:25:55;;;;;;;;;;;;;;;20.92;43.00;95756.84;10535348;28;3013;-46
2022/10/01 21:31:14;;;;;;;;;;;;;;;20.96;43.20;95763.91;10518374;28;2751;-45
2022/10/01 21:36:18;;;;;;;;;;;;;;;21.01;43.31;95773.63;10523012;28;3324;-47
2022/10/01 21:41:35;;;;;;;;;;;;;;;20.97;43.24;95776.06;10496762;28;3150;-45
2022/10/01 21:47:01;;;;;;;;;;;;;;;21.03;43.19;95801.34;10537532;28;2737;-44
2022/10/01 21:52:09;;;;;;;;;;;;;;;21.00;43.34;95799.19;10506396;28;3142;-45
2022/10/01 21:57:16;;;;;;;;;;;;;;;21.00;43.05;95801.84;10520501;28;3058;-46
2022/10/01 22:02:35;;;;;;;;;;;;;;;21.00;43.16;95812.38;10523028;28;2721;-46
2022/10/01 22:07:37;;;;;;;;;;;;;;;20.97;43.26;95817.41;10517675;28;2979;-46
2022/10/01 22:12:39;;;;;;;;;;;;;;;21.03;43.16;95816.34;10509837;28;3477;-49
2022/10/01 22:17:39;;;;;;;;;;;;;;;21.03;43.32;95835.59;10501600;28;3103;-45
2022/10/01 22:22:39;;;;;;;;;;;;;;;20.99;43.35;95841.66;10512793;28;2720;-48
2022/10/01 22:27:57;;;;;;;;;;;;;;;21.02;43.06;95862.19;10540340;28;3045;-49
2022/10/01 22:32:58;;;;;;;;;;;;;;;20.95;43.14;95864.34;10524762;28;3109;-45
2022/10/01 22:38:06;;;;;;;;;;;;;;;21.01;43.12;95865.88;10514461;28;3014;-47
2022/10/01 22:43:10;;;;;;;;;;;;;;;20.97;43.33;95876.19;10532664;28;2760;-45
2022/10/01 22:48:20;;;;;;;;;;;;;;;20.96;43.55;95879.88;10511415;28;2734;-45
2022/10/01 22:53:29;;;;;;;;;;;;;;;20.94;43.36;95887.25;10499252;28;2724;-46
2022/10/01 22:58:32;;;;;;;;;;;;;;;20.90;43.31;95891.50;10520705;28;3112;-46
2022/10/01 23:03:39;;;;;;;;;;;;;;;20.77;43.57;95899.22;10492098;28;3002;-45
2022/10/01 23:09:06;;;;;;;;;;;;;;;20.76;43.88;95900.25;10513867;28;3007;-46
2022/10/01 23:14:15;;;;;;;;;;;;;;;20.71;43.63;95906.34;10497633;28;2756;-44
2022/10/01 23:19:22;;;;;;;;;;;;;;;20.72;43.81;95915.03;10516643;28;3055;-45
2022/10/01 23:24:25;;;;;;;;;;;;;;;20.71;44.07;95924.00;10510466;28;3106;-47
2022/10/01 23:29:26;;;;;;;;;;;;;;;20.69;43.72;95921.63;10519294;28;3114;-45
2022/10/01 23:34:44;;;;;;;;;;;;;;;20.68;44.00;95932.44;10528396;28;3002;-46
2022/10/01 23:40:06;;;;;;;;;;;;;;;20.76;43.86;95931.88;10516973;28;3007;-44
2022/10/01 23:45:22;;;;;;;;;;;;;;;20.70;43.78;95925.84;10510989;28;2966;-45
2022/10/01 23:50:32;;;;;;;;;;;;;;;20.69;44.07;95937.44;10508427;28;2690;-47
